Time;durP1;ratioP1;P1;durP2;ratioP2;P2;SDS_P1;SDS_P2;PMS_P1;PMS_P2;Temp;Humidity;BMP_temperature;BMP_pressure;BME280_temperature;BME280_humidity;BME280_pressure;Samples;Min_cycle;Max_cycle;Signal;HPM_P1;HPM_P2
2022/10/02 00:00:03;;;;;;;;;;;22.70;51.00;;;;;;1528088;76;1985;-58
2022/10/02 00:02:07;;;;;;;;;;;22.70;51.00;;;;;;1524894;76;1147;-58
2022/10/02 00:04:09;;;;;;;;;;;22.70;51.00;;;;;;1574771;75;1704;-58
2022/10/02 00:06:13;;;;;;;;;;;22.80;51.00;;;;;;1552126;75;1094;-59
2022/10/02 00:08:24;;;;;;;;;;;22.80;51.00;;;;;;1581443;73;1685;-58
2022/10/02 00:10:40;;;;;;;;;;;22.70;51.00;;;;;;1584823;74;764;-59
2022/10/02 00:12:42;;;;;;;;;;;22.70;51.00;;;;;;1589058;73;658;-58
2022/10/02 00:14:44;;;;;;;;;;;22.80;50.90;;;;;;1574632;74;1180;-57
2022/10/02 00:16:47;;;;;;;;;;;22.80;50.90;;;;;;1577721;74;690;-57
2022/10/02 00:18:49;;;;;;;;;;;22.70;50.80;;;;;;1576808;74;1941;-58
2022/10/02 00:20:52;;;;;;;;;;;22.80;50.90;;;;;;1575617;73;744;-59
2022/10/02 00:22:56;;;;;;;;;;;22.80;50.80;;;;;;1575323;73;1270;-58
2022/10/02 00:25:05;;;;;;;;;;;22.70;50.80;;;;;;1576659;74;1148;-60
2022/10/02 00:27:25;;;;;;;;;;;22.70;50.90;;;;;;1578678;73;1795;-59
2022/10/02 00:29:41;;;;;;;;;;;22.80;50.90;;;;;;1581678;74;679;-58
2022/10/02 00:32:01;;;;;;;;;;;22.70;51.00;;;;;;1565505;74;710;-57
2022/10/02 00:34:07;;;;;;;;;;;22.80;51.00;;;;;;1562242;75;780;-59
2022/10/02 00:36:27;;;;;;;;;;;22.70;51.00;;;;;;1533165;76;1648;-56
2022/10/02 00:38:33;;;;;;;;;;;22.80;51.00;;;;;;1548230;75;831;-59
2022/10/02 00:40:46;;;;;;;;;;;22.80;51.00;;;;;;1560767;75;765;-59
2022/10/02 00:43:06;;;;;;;;;;;22.80;50.90;;;;;;1513288;77;1855;-58
2022/10/02 00:45:13;;;;;;;;;;;22.80;51.00;;;;;;1580525;74;1099;-59
2022/10/02 00:47:31;;;;;;;;;;;22.80;51.00;;;;;;1588126;74;1438;-59
2022/10/02 00:49:35;;;;;;;;;;;22.80;50.90;;;;;;1587488;74;1988;-57
2022/10/02 00:51:51;;;;;;;;;;;22.80;50.90;;;;;;1598503;73;1793;-59
2022/10/02 00:53:54;;;;;;;;;;;22.90;51.10;;;;;;1591403;73;771;-59
2022/10/02 00:55:58;;;;;;;;;;;22.80;50.90;;;;;;1583255;74;1142;-56
2022/10/02 00:58:01;;;;;;;;;;;22.80;51.00;;;;;;1588684;74;771;-59
2022/10/02 01:00:05;;;;;;;;;;;22.80;50.90;;;;;;1581101;74;1931;-55
2022/10/02 01:02:15;;;;;;;;;;;22.80;50.90;;;;;;1577670;75;751;-57
2022/10/02 01:04:27;;;;;;;;;;;22.80;50.80;;;;;;1589931;75;1571;-59
2022/10/02 01:06:29;;;;;;;;;;;22.90;51.10;;;;;;1582793;73;875;-57
2022/10/02 01:08:31;;;;;;;;;;;22.80;51.00;;;;;;1595616;73;805;-54
2022/10/02 01:10:33;;;;;;;;;;;22.80;51.00;;;;;;1590690;74;665;-57
2022/10/02 01:12:36;;;;;;;;;;;22.80;50.90;;;;;;1594721;74;751;-55
2022/10/02 01:14:39;;;;;;;;;;;22.80;50.90;;;;;;1590507;75;1145;-58
2022/10/02 01:16:43;;;;;;;;;;;22.80;50.90;;;;;;1588108;74;758;-58
2022/10/02 01:18:46;;;;;;;;;;;22.80;50.90;;;;;;1577787;74;1943;-58
2022/10/02 01:20:49;;;;;;;;;;;22.80;51.00;;;;;;1585301;73;660;-59
2022/10/02 01:23:09;;;;;;;;;;;22.70;51.00;;;;;;1581532;73;716;-58
2022/10/02 01:25:11;;;;;;;;;;;22.80;51.00;;;;;;1584915;73;1161;-58
2022/10/02 01:27:13;;;;;;;;;;;22.80;51.00;;;;;;1582602;73;809;-58
2022/10/02 01:29:15;;;;;;;;;;;22.80;51.10;;;;;;1569593;74;747;-58
2022/10/02 01:31:17;;;;;;;;;;;22.70;51.10;;;;;;1583792;73;771;-58
2022/10/02 01:33:19;;;;;;;;;;;22.70;51.10;;;;;;1576142;74;1589;-56
2022/10/02 01:35:22;;;;;;;;;;;22.70;51.30;;;;;;1581252;73;1126;-55
2022/10/02 01:37:25;;;;;;;;;;;22.70;51.30;;;;;;1585389;73;767;-58
2022/10/02 01:39:27;;;;;;;;;;;22.70;51.40;;;;;;1575501;74;1933;-57
2022/10/02 01:41:29;;;;;;;;;;;22.60;51.30;;;;;;1583943;75;784;-55
2022/10/02 01:43:31;;;;;;;;;;;22.70;51.30;;;;;;1585903;73;731;-58
2022/10/02 01:45:35;;;;;;;;;;;22.70;51.40;;;;;;1576493;73;1166;-58
2022/10/02 01:47:47;;;;;;;;;;;22.60;51.40;;;;;;1582539;74;2152;-58
2022/10/02 01:50:03;;;;;;;;;;;22.70;51.40;;;;;;1581891;73;2382;-58
2022/10/02 01:52:23;;;;;;;;;;;22.70;51.50;;;;;;1569165;74;1913;-58
2022/10/02 01:54:26;;;;;;;;;;;22.70;51.50;;;;;;1582023;74;1152;-56
2022/10/02 01:56:33;;;;;;;;;;;22.70;51.50;;;;;;1578642;75;1810;-58
2022/10/02 01:58:53;;;;;;;;;;;22.60;51.40;;;;;;1566305;75;1675;-58
2022/10/02 02:01:12;;;;;;;;;;;22.60;51.40;;;;;;1575471;75;1930;-58
2022/10/02 02:03:15;;;;;;;;;;;22.60;51.40;;;;;;1572137;74;792;-57
2022/10/02 02:05:21;;;;;;;;;;;22.60;51.50;;;;;;1589185;73;1885;-56
2022/10/02 02:07:34;;;;;;;;;;;22.60;51.40;;;;;;1577934;74;2087;-56
2022/10/02 02:09:36;;;;;;;;;;;22.60;51.50;;;;;;1588370;74;1066;-58
2022/10/02 02:11:39;;;;;;;;;;;22.60;51.50;;;;;;1586176;74;1952;-58
2022/10/02 02:13:42;;;;;;;;;;;22.60;51.50;;;;;;1588095;73;749;-58
2022/10/02 02:16:01;;;;;;;;;;;22.60;51.50;;;;;;1586050;74;1978;-58
2022/10/02 02:18:10;;;;;;;;;;;22.60;51.50;;;;;;1581780;74;727;-58
2022/10/02 02:20:14;;;;;;;;;;;22.60;51.50;;;;;;1602144;73;1936;-57
2022/10/02 02:22:17;;;;;;;;;;;22.60;51.40;;;;;;1589245;73;713;-55
2022/10/02 02:24:21;;;;;;;;;;;22.60;51.50;;;;;;1574691;75;1135;-56
2022/10/02 02:26:23;;;;;;;;;;;22.60;51.50;;;;;;1568469;74;1795;-56
2022/10/02 02:28:25;;;;;;;;;;;22.60;51.50;;;;;;1580156;73;1587;-57
2022/10/02 02:30:27;;;;;;;;;;;22.60;51.50;;;;;;1584937;74;760;-58
2022/10/02 02:32:29;;;;;;;;;;;22.60;51.50;;;;;;1578053;74;703;-59
2022/10/02 02:34:32;;;;;;;;;;;22.50;51.50;;;;;;1581650;73;1098;-58
2022/10/02 02:36:38;;;;;;;;;;;22.60;51.50;;;;;;1593014;73;756;-58
2022/10/02 02:38:41;;;;;;;;;;;22.60;51.60;;;;;;1590689;74;711;-57
2022/10/02 02:40:43;;;;;;;;;;;22.60;51.50;;;;;;1587866;74;1929;-58
2022/10/02 02:42:50;;;;;;;;;;;22.60;51.50;;;;;;1576663;74;1535;-59
2022/10/02 02:44:56;;;;;;;;;;;22.60;51.50;;;;;;1576084;73;1946;-58
2022/10/02 02:47:02;;;;;;;;;;;22.60;51.50;;;;;;1589988;74;1765;-59
2022/10/02 02:49:06;;;;;;;;;;;22.60;51.40;;;;;;1572877;74;673;-58
2022/10/02 02:51:09;;;;;;;;;;;22.60;51.40;;;;;;1594976;73;681;-57
2022/10/02 02:53:12;;;;;;;;;;;22.60;51.40;;;;;;1589958;73;800;-57
2022/10/02 02:55:22;;;;;;;;;;;22.70;51.50;;;;;;1583375;74;1288;-58
2022/10/02 02:57:28;;;;;;;;;;;22.60;51.40;;;;;;1572454;74;1682;-58
2022/10/02 02:59:30;;;;;;;;;;;22.60;51.40;;;;;;1583541;74;1906;-59
2022/10/02 03:01:32;;;;;;;;;;;22.50;51.40;;;;;;1579478;74;690;-58
2022/10/02 03:03:34;;;;;;;;;;;22.60;51.40;;;;;;1585678;75;889;-56
2022/10/02 03:05:36;;;;;;;;;;;22.60;51.30;;;;;;1584452;74;1139;-55
2022/10/02 03:07:38;;;;;;;;;;;22.60;51.40;;;;;;1585056;73;756;-55
2022/10/02 03:09:41;;;;;;;;;;;22.60;51.40;;;;;;1582291;74;710;-57
2022/10/02 03:11:51;;;;;;;;;;;22.60;51.40;;;;;;1576873;74;1514;-57
2022/10/02 03:13:54;;;;;;;;;;;22.60;51.50;;;;;;1576962;75;2197;-58
2022/10/02 03:16:01;;;;;;;;;;;22.50;51.50;;;;;;1575175;75;1894;-58
2022/10/02 03:18:04;;;;;;;;;;;22.60;51.50;;;;;;1570623;75;2141;-56
2022/10/02 03:20:17;;;;;;;;;;;22.60;51.60;;;;;;1582964;73;1922;-58
2022/10/02 03:22:28;;;;;;;;;;;22.60;51.50;;;;;;1558225;73;1660;-58
2022/10/02 03:24:40;;;;;;;;;;;22.60;51.60;;;;;;1580417;74;1583;-56
2022/10/02 03:26:44;;;;;;;;;;;22.60;51.60;;;;;;1587347;75;797;-58
2022/10/02 03:28:48;;;;;;;;;;;22.50;51.60;;;;;;1573015;74;843;-55
2022/10/02 03:30:50;;;;;;;;;;;22.50;51.70;;;;;;1581944;73;728;-55
2022/10/02 03:32:52;;;;;;;;;;;22.50;51.60;;;;;;1579070;74;801;-59
2022/10/02 03:34:55;;;;;;;;;;;22.50;51.60;;;;;;1576786;73;1149;-56
2022/10/02 03:36:57;;;;;;;;;;;22.60;51.70;;;;;;1583384;73;743;-58
2022/10/02 03:39:00;;;;;;;;;;;22.50;51.70;;;;;;1574101;74;1382;-58
2022/10/02 03:41:02;;;;;;;;;;;22.50;51.60;;;;;;1582918;74;1930;-59
2022/10/02 03:43:03;;;;;;;;;;;22.60;51.70;;;;;;1589928;74;708;-58
2022/10/02 03:45:06;;;;;;;;;;;22.50;51.70;;;;;;1581339;74;1148;-58
2022/10/02 03:47:08;;;;;;;;;;;22.60;51.70;;;;;;1586311;74;702;-58
2022/10/02 03:49:10;;;;;;;;;;;22.50;51.70;;;;;;1586571;73;838;-57
2022/10/02 03:51:11;;;;;;;;;;;22.50;51.70;;;;;;1588761;73;756;-53
2022/10/02 03:53:14;;;;;;;;;;;22.50;51.70;;;;;;1578243;73;1557;-58
2022/10/02 03:55:33;;;;;;;;;;;22.50;51.70;;;;;;1577604;73;1310;-58
2022/10/02 03:57:35;;;;;;;;;;;22.50;51.60;;;;;;1576717;75;1715;-58
2022/10/02 03:59:44;;;;;;;;;;;22.50;51.80;;;;;;1576960;74;813;-58
2022/10/02 04:01:49;;;;;;;;;;;22.50;51.90;;;;;;1583422;74;1830;-55
2022/10/02 04:03:52;;;;;;;;;;;22.50;51.80;;;;;;1584775;74;745;-55
2022/10/02 04:06:04;;;;;;;;;;;22.50;51.80;;;;;;1593369;73;1130;-59
2022/10/02 04:08:10;;;;;;;;;;;22.50;51.80;;;;;;1583833;74;1538;-57
2022/10/02 04:10:20;;;;;;;;;;;22.50;51.80;;;;;;1562727;73;1651;-58
2022/10/02 04:12:29;;;;;;;;;;;22.50;51.80;;;;;;1585166;73;709;-57
2022/10/02 04:14:41;;;;;;;;;;;22.50;51.90;;;;;;1581466;73;1178;-57
2022/10/02 04:16:48;;;;;;;;;;;22.50;52.00;;;;;;1592583;73;749;-57
2022/10/02 04:18:51;;;;;;;;;;;22.50;51.90;;;;;;1588549;74;659;-55
2022/10/02 04:21:01;;;;;;;;;;;22.50;51.90;;;;;;1573602;73;1937;-58
2022/10/02 04:23:03;;;;;;;;;;;22.40;51.80;;;;;;1582659;74;857;-58
2022/10/02 04:25:07;;;;;;;;;;;22.50;51.90;;;;;;1582160;75;1203;-57
2022/10/02 04:27:25;;;;;;;;;;;22.50;51.90;;;;;;1580779;74;792;-58
2022/10/02 04:29:28;;;;;;;;;;;22.50;51.90;;;;;;1535152;76;1094;-59
2022/10/02 04:31:30;;;;;;;;;;;22.50;52.00;;;;;;1548632;75;992;-58
2022/10/02 04:33:32;;;;;;;;;;;22.50;51.90;;;;;;1574394;73;738;-56
2022/10/02 04:35:38;;;;;;;;;;;22.40;51.70;;;;;;1573662;74;1590;-59
2022/10/02 04:37:47;;;;;;;;;;;22.50;51.90;;;;;;1577271;74;1651;-59
2022/10/02 04:39:51;;;;;;;;;;;22.50;51.90;;;;;;1586637;74;2004;-55
2022/10/02 04:41:54;;;;;;;;;;;22.50;52.00;;;;;;1593911;74;836;-58
2022/10/02 04:44:04;;;;;;;;;;;22.50;51.90;;;;;;1583394;74;1771;-58
2022/10/02 04:46:22;;;;;;;;;;;22.50;51.90;;;;;;1575264;74;1081;-55
2022/10/02 04:48:26;;;;;;;;;;;22.50;51.90;;;;;;1585343;73;963;-57
2022/10/02 04:50:46;;;;;;;;;;;22.50;51.90;;;;;;1592870;73;1725;-58
2022/10/02 04:52:52;;;;;;;;;;;22.50;51.90;;;;;;1566895;74;728;-56
2022/10/02 04:55:06;;;;;;;;;;;22.50;52.00;;;;;;1570834;74;1929;-58
2022/10/02 04:57:15;;;;;;;;;;;22.50;51.90;;;;;;1583682;74;692;-58
2022/10/02 04:59:19;;;;;;;;;;;22.50;52.00;;;;;;1588460;74;1703;-58
2022/10/02 05:01:31;;;;;;;;;;;22.40;51.80;;;;;;1575756;74;1915;-58
2022/10/02 05:03:38;;;;;;;;;;;22.50;52.00;;;;;;1567156;74;1300;-55
2022/10/02 05:05:58;;;;;;;;;;;22.40;51.90;;;;;;1590926;73;1141;-58
2022/10/02 05:08:01;;;;;;;;;;;22.40;51.90;;;;;;1568937;74;718;-58
2022/10/02 05:10:05;;;;;;;;;;;22.40;52.00;;;;;;1580918;74;1916;-59
2022/10/02 05:12:08;;;;;;;;;;;22.60;52.20;;;;;;1587731;74;1852;-59
2022/10/02 05:14:15;;;;;;;;;;;22.60;52.10;;;;;;1567014;74;798;-57
2022/10/02 05:16:27;;;;;;;;;;;22.50;52.00;;;;;;1590032;74;1566;-59
2022/10/02 05:18:31;;;;;;;;;;;22.50;51.90;;;;;;1585218;73;2002;-59
2022/10/02 05:20:37;;;;;;;;;;;22.50;51.80;;;;;;1586540;74;1935;-57
2022/10/02 05:22:44;;;;;;;;;;;22.50;51.80;;;;;;1581436;74;1886;-59
2022/10/02 05:24:50;;;;;;;;;;;22.50;51.80;;;;;;1570011;74;1227;-56
2022/10/02 05:27:02;;;;;;;;;;;22.50;51.80;;;;;;1550845;75;819;-57
2022/10/02 05:29:12;;;;;;;;;;;22.50;51.80;;;;;;1564801;74;1960;-59
2022/10/02 05:31:18;;;;;;;;;;;22.40;51.60;;;;;;1570887;73;1795;-59
2022/10/02 05:33:31;;;;;;;;;;;22.50;51.70;;;;;;1577772;73;1906;-59
2022/10/02 05:35:50;;;;;;;;;;;22.50;51.80;;;;;;1573361;74;1589;-59
2022/10/02 05:37:54;;;;;;;;;;;22.50;51.70;;;;;;1576100;73;717;-59
2022/10/02 05:39:57;;;;;;;;;;;22.50;51.70;;;;;;1580533;74;1919;-57
2022/10/02 05:42:01;;;;;;;;;;;22.50;51.70;;;;;;1567983;73;1956;-59
2022/10/02 05:44:13;;;;;;;;;;;22.50;51.70;;;;;;1581365;74;1873;-60
2022/10/02 05:46:22;;;;;;;;;;;22.50;51.60;;;;;;1577476;74;1573;-60
2022/10/02 05:48:26;;;;;;;;;;;22.40;51.50;;;;;;1574906;73;737;-58
2022/10/02 05:50:29;;;;;;;;;;;22.50;51.50;;;;;;1577066;74;1830;-56
2022/10/02 05:52:32;;;;;;;;;;;22.50;51.60;;;;;;1574914;74;780;-55
2022/10/02 05:54:36;;;;;;;;;;;22.50;51.50;;;;;;1571102;74;1168;-56
2022/10/02 05:56:39;;;;;;;;;;;22.50;51.50;;;;;;1578624;74;1181;-56
2022/10/02 05:58:42;;;;;;;;;;;22.50;51.50;;;;;;1570726;74;606;-56
2022/10/02 06:00:46;;;;;;;;;;;22.50;51.50;;;;;;1586305;73;1903;-57
2022/10/02 06:02:49;;;;;;;;;;;22.40;51.30;;;;;;1583227;73;671;-56
2022/10/02 06:04:53;;;;;;;;;;;22.50;51.40;;;;;;1591494;73;1139;-56
2022/10/02 06:06:56;;;;;;;;;;;22.50;51.40;;;;;;1584176;73;772;-60
2022/10/02 06:08:59;;;;;;;;;;;22.40;51.20;;;;;;1580970;74;731;-56
2022/10/02 06:11:03;;;;;;;;;;;22.40;51.20;;;;;;1579658;74;775;-58
2022/10/02 06:13:07;;;;;;;;;;;22.50;51.30;;;;;;1589251;74;1074;-59
2022/10/02 06:15:16;;;;;;;;;;;22.50;51.30;;;;;;1584961;71;3144;-59
2022/10/02 06:17:35;;;;;;;;;;;22.50;51.20;;;;;;1592791;73;699;-60
2022/10/02 06:19:38;;;;;;;;;;;22.50;51.20;;;;;;1601583;74;717;-57
2022/10/02 06:21:44;;;;;;;;;;;22.40;51.10;;;;;;1588404;73;1934;-59
2022/10/02 06:23:47;;;;;;;;;;;22.50;51.20;;;;;;1591903;74;1849;-58
2022/10/02 06:25:51;;;;;;;;;;;22.40;51.00;;;;;;1580712;74;1168;-58
2022/10/02 06:28:03;;;;;;;;;;;22.50;51.30;;;;;;1575809;74;1530;-62
2022/10/02 06:30:06;;;;;;;;;;;22.50;51.30;;;;;;1581957;74;1562;-58
2022/10/02 06:32:09;;;;;;;;;;;22.40;51.00;;;;;;1571001;74;823;-56
2022/10/02 06:34:11;;;;;;;;;;;22.40;51.10;;;;;;1577995;74;1143;-57
2022/10/02 06:36:15;;;;;;;;;;;22.50;51.20;;;;;;1577339;74;1070;-61
2022/10/02 06:38:18;;;;;;;;;;;22.50;51.20;;;;;;1572383;74;747;-60
2022/10/02 06:40:29;;;;;;;;;;;22.40;51.00;;;;;;1581820;74;699;-60
2022/10/02 06:42:33;;;;;;;;;;;22.40;51.00;;;;;;1583624;74;1515;-59
2022/10/02 06:44:53;;;;;;;;;;;22.40;51.00;;;;;;1577588;74;1985;-59
2022/10/02 06:47:09;;;;;;;;;;;22.40;51.00;;;;;;1575139;74;730;-58
2022/10/02 06:49:31;;;;;;;;;;;22.50;51.10;;;;;;1575264;74;1634;-61
2022/10/02 06:51:37;;;;;;;;;;;22.40;51.00;;;;;;1573237;74;773;-60
2022/10/02 06:53:43;;;;;;;;;;;22.40;51.00;;;;;;1579049;74;1190;-59
2022/10/02 06:55:53;;;;;;;;;;;22.40;51.00;;;;;;1565862;74;1573;-59
2022/10/02 06:58:12;;;;;;;;;;;22.40;51.00;;;;;;1576444;74;1738;-59
2022/10/02 07:00:16;;;;;;;;;;;22.40;51.00;;;;;;1573873;74;765;-57
2022/10/02 07:02:20;;;;;;;;;;;22.40;50.90;;;;;;1577335;74;1937;-58
2022/10/02 07:04:33;;;;;;;;;;;22.40;51.00;;;;;;1569040;74;1871;-59
2022/10/02 07:06:38;;;;;;;;;;;22.40;51.00;;;;;;1577530;74;739;-59
2022/10/02 07:08:59;;;;;;;;;;;22.50;51.10;;;;;;1575589;74;694;-58
2022/10/02 07:11:03;;;;;;;;;;;22.40;50.90;;;;;;1581211;74;1528;-58
2022/10/02 07:13:18;;;;;;;;;;;22.40;50.90;;;;;;1582851;74;970;-59
2022/10/02 07:15:25;;;;;;;;;;;22.50;51.00;;;;;;1578879;74;1132;-59
2022/10/02 07:17:29;;;;;;;;;;;22.50;51.00;;;;;;1576535;74;2010;-60
2022/10/02 07:19:39;;;;;;;;;;;22.40;50.80;;;;;;1578761;74;911;-58
2022/10/02 07:21:49;;;;;;;;;;;22.50;51.00;;;;;;1571525;74;1916;-59
2022/10/02 07:23:55;;;;;;;;;;;22.40;50.80;;;;;;1569589;74;1559;-57
2022/10/02 07:26:02;;;;;;;;;;;22.50;50.90;;;;;;1576390;74;1202;-57
2022/10/02 07:28:22;;;;;;;;;;;22.50;51.00;;;;;;1577197;74;730;-60
2022/10/02 07:30:24;;;;;;;;;;;22.40;50.80;;;;;;1573106;74;795;-59
2022/10/02 07:32:28;;;;;;;;;;;22.40;50.90;;;;;;1568429;74;703;-57
2022/10/02 07:34:38;;;;;;;;;;;22.50;51.00;;;;;;1576650;74;1974;-58
2022/10/02 07:36:42;;;;;;;;;;;22.50;50.90;;;;;;1578101;74;735;-60
2022/10/02 07:38:48;;;;;;;;;;;22.50;50.90;;;;;;1580211;74;1381;-57
2022/10/02 07:40:51;;;;;;;;;;;22.50;51.00;;;;;;1573486;74;1947;-59
2022/10/02 07:43:13;;;;;;;;;;;22.50;50.90;;;;;;1567481;74;1979;-56
2022/10/02 07:45:33;;;;;;;;;;;22.50;50.90;;;;;;1575328;74;1725;-59
2022/10/02 07:47:39;;;;;;;;;;;22.50;50.80;;;;;;1563728;74;676;-58
2022/10/02 07:49:50;;;;;;;;;;;22.50;50.90;;;;;;1573410;74;1905;-59
2022/10/02 07:52:11;;;;;;;;;;;22.50;51.00;;;;;;1576662;74;1549;-56
2022/10/02 07:54:26;;;;;;;;;;;22.40;50.80;;;;;;1571618;74;772;-57
2022/10/02 07:56:28;;;;;;;;;;;22.50;50.90;;;;;;1578421;74;642;-59
2022/10/02 07:58:40;;;;;;;;;;;22.50;50.90;;;;;;1585529;74;733;-60
2022/10/02 08:00:43;;;;;;;;;;;22.50;50.90;;;;;;1578225;74;609;-59
2022/10/02 08:02:52;;;;;;;;;;;22.50;50.90;;;;;;1579604;74;1912;-56
2022/10/02 08:04:56;;;;;;;;;;;22.50;50.80;;;;;;1580419;74;1138;-59
2022/10/02 08:06:59;;;;;;;;;;;22.50;50.90;;;;;;1573929;74;1596;-57
2022/10/02 08:09:07;;;;;;;;;;;22.40;50.70;;;;;;1579886;74;2042;-58
2022/10/02 08:11:29;;;;;;;;;;;22.50;50.80;;;;;;1580798;74;653;-57
2022/10/02 08:13:32;;;;;;;;;;;22.50;50.80;;;;;;1567277;74;836;-59
2022/10/02 08:15:35;;;;;;;;;;;22.40;50.70;;;;;;1571534;74;1154;-58
2022/10/02 08:17:41;;;;;;;;;;;22.50;50.80;;;;;;1574907;74;791;-59
2022/10/02 08:19:45;;;;;;;;;;;22.40;50.70;;;;;;1569283;74;1659;-60
2022/10/02 08:21:48;;;;;;;;;;;22.40;50.70;;;;;;1578679;74;1922;-59
2022/10/02 08:23:52;;;;;;;;;;;22.50;50.80;;;;;;1572410;74;1823;-57
2022/10/02 08:25:56;;;;;;;;;;;22.50;50.80;;;;;;1574945;74;1140;-59
2022/10/02 08:28:16;;;;;;;;;;;22.50;50.70;;;;;;1574636;74;1987;-59
2022/10/02 08:30:18;;;;;;;;;;;22.40;50.60;;;;;;1572411;74;752;-59
2022/10/02 08:32:21;;;;;;;;;;;22.50;50.70;;;;;;1580609;74;740;-57
2022/10/02 08:34:23;;;;;;;;;;;22.50;50.70;;;;;;1578549;74;1508;-60
2022/10/02 08:36:36;;;;;;;;;;;22.50;50.70;;;;;;1571205;74;831;-58
2022/10/02 08:38:40;;;;;;;;;;;22.50;50.70;;;;;;1570543;74;1798;-59
2022/10/02 08:40:43;;;;;;;;;;;22.50;50.70;;;;;;1576445;74;656;-58
2022/10/02 08:42:55;;;;;;;;;;;22.50;50.70;;;;;;1570446;74;1941;-62
2022/10/02 08:45:15;;;;;;;;;;;22.50;50.70;;;;;;1497132;78;1149;-58
2022/10/02 08:47:34;;;;;;;;;;;22.50;50.70;;;;;;1570104;74;857;-62
2022/10/02 08:49:43;;;;;;;;;;;22.50;50.70;;;;;;1572279;74;1407;-60
2022/10/02 08:51:53;;;;;;;;;;;22.50;50.70;;;;;;1573133;74;691;-60
2022/10/02 08:54:14;;;;;;;;;;;22.50;50.70;;;;;;1567387;74;797;-59
2022/10/02 08:56:27;;;;;;;;;;;22.50;50.70;;;;;;1569460;74;722;-59
2022/10/02 08:58:30;;;;;;;;;;;22.50;50.70;;;;;;1569643;75;1897;-59
2022/10/02 09:00:34;;;;;;;;;;;22.50;50.70;;;;;;1547658;74;1347;-60
2022/10/02 09:02:54;;;;;;;;;;;22.60;50.70;;;;;;1584520;74;1942;-57
2022/10/02 09:05:06;;;;;;;;;;;22.60;50.60;;;;;;1562235;74;1153;-57
2022/10/02 09:07:09;;;;;;;;;;;22.50;50.60;;;;;;1572806;75;703;-57
2022/10/02 09:09:25;;;;;;;;;;;22.60;50.60;;;;;;1572669;74;1456;-62
2022/10/02 09:11:35;;;;;;;;;;;22.60;50.50;;;;;;1583604;74;815;-61
2022/10/02 09:13:41;;;;;;;;;;;22.60;50.50;;;;;;1576708;74;2011;-61
2022/10/02 09:15:46;;;;;;;;;;;22.60;50.50;;;;;;1578765;74;1456;-60
2022/10/02 09:17:50;;;;;;;;;;;22.60;50.50;;;;;;1584394;74;1597;-62
2022/10/02 09:20:06;;;;;;;;;;;22.50;50.60;;;;;;1569975;74;1688;-59
2022/10/02 09:22:26;;;;;;;;;;;22.60;50.60;;;;;;1572804;75;1950;-60
2022/10/02 09:24:35;;;;;;;;;;;22.50;50.50;;;;;;1575881;74;1087;-62
2022/10/02 09:26:42;;;;;;;;;;;22.60;50.50;;;;;;1572555;74;751;-61
2022/10/02 09:28:48;;;;;;;;;;;22.60;50.50;;;;;;1571937;74;1972;-57
2022/10/02 09:31:08;;;;;;;;;;;22.60;50.50;;;;;;1563996;75;1597;-59
2022/10/02 09:33:28;;;;;;;;;;;22.70;50.50;;;;;;1559742;75;790;-58
2022/10/02 09:35:31;;;;;;;;;;;22.60;50.50;;;;;;1559022;74;1189;-59
2022/10/02 09:37:50;;;;;;;;;;;22.60;50.50;;;;;;1562515;74;1790;-60
2022/10/02 09:40:07;;;;;;;;;;;22.60;50.40;;;;;;1554270;74;716;-59
2022/10/02 09:42:19;;;;;;;;;;;22.60;50.40;;;;;;1558272;75;1934;-60
2022/10/02 09:44:39;;;;;;;;;;;22.60;50.50;;;;;;1568751;74;1415;-60
2022/10/02 09:46:43;;;;;;;;;;;22.60;50.40;;;;;;1561079;75;842;-60
2022/10/02 09:49:03;;;;;;;;;;;22.60;50.30;;;;;;1561873;74;704;-60
2022/10/02 09:51:25;;;;;;;;;;;22.60;50.40;;;;;;1555665;74;711;-60
2022/10/02 09:53:28;;;;;;;;;;;22.70;50.50;;;;;;1560472;74;733;-60
2022/10/02 09:55:48;;;;;;;;;;;22.60;50.40;;;;;;1565547;74;1847;-60
2022/10/02 09:58:10;;;;;;;;;;;22.60;50.40;;;;;;1563785;74;756;-57
2022/10/02 10:00:19;;;;;;;;;;;22.70;50.50;;;;;;1565282;74;1776;-58
2022/10/02 10:02:26;;;;;;;;;;;22.70;50.50;;;;;;1566641;74;1925;-60
2022/10/02 10:04:46;;;;;;;;;;;22.70;50.50;;;;;;1557402;74;1758;-60
2022/10/02 10:07:07;;;;;;;;;;;22.60;50.40;;;;;;1565008;74;775;-60
2022/10/02 10:09:20;;;;;;;;;;;22.60;50.40;;;;;;1561777;74;1872;-60
2022/10/02 10:11:36;;;;;;;;;;;22.60;50.40;;;;;;1565367;74;2099;-59
2022/10/02 10:13:42;;;;;;;;;;;22.60;50.40;;;;;;1560643;74;1496;-58
2022/10/02 10:15:45;;;;;;;;;;;22.60;50.30;;;;;;1562074;74;1862;-60
2022/10/02 10:17:54;;;;;;;;;;;22.60;50.40;;;;;;1558787;75;825;-58
2022/10/02 10:20:13;;;;;;;;;;;22.70;50.40;;;;;;1516135;75;1659;-59
2022/10/02 10:22:19;;;;;;;;;;;22.70;50.40;;;;;;1557183;74;1924;-59
2022/10/02 10:24:38;;;;;;;;;;;22.70;50.40;;;;;;1564446;75;2097;-61
2022/10/02 10:26:42;;;;;;;;;;;22.80;50.40;;;;;;1558317;74;1831;-60
2022/10/02 10:28:46;;;;;;;;;;;22.70;50.40;;;;;;1562845;74;1660;-59
2022/10/02 10:31:05;;;;;;;;;;;22.70;50.40;;;;;;1561596;74;1932;-61
2022/10/02 10:33:08;;;;;;;;;;;22.70;50.40;;;;;;1566872;74;756;-58
2022/10/02 10:35:28;;;;;;;;;;;22.70;50.30;;;;;;1559602;74;1188;-61
2022/10/02 10:40:17;;;;;;;;;;;22.80;50.30;;;;;;1559632;74;1634;-61
2022/10/02 10:42:37;;;;;;;;;;;22.70;50.30;;;;;;1562331;74;1931;-61
2022/10/02 10:44:50;;;;;;;;;;;22.70;50.30;;;;;;1555879;74;1149;-57
2022/10/02 10:46:53;;;;;;;;;;;22.70;50.40;;;;;;1513451;77;1113;-58
2022/10/02 10:48:59;;;;;;;;;;;22.70;50.30;;;;;;1551114;74;2037;-61
2022/10/02 10:51:13;;;;;;;;;;;22.80;50.30;;;;;;1561055;74;1644;-59
2022/10/02 10:53:29;;;;;;;;;;;22.70;50.30;;;;;;1568426;74;1917;-59
2022/10/02 10:55:51;;;;;;;;;;;22.70;50.40;;;;;;1571137;74;1372;-58
2022/10/02 10:58:13;;;;;;;;;;;22.70;50.30;;;;;;1576940;74;1963;-61
2022/10/02 11:00:21;;;;;;;;;;;22.80;50.30;;;;;;1562691;74;1707;-61
2022/10/02 11:02:34;;;;;;;;;;;22.80;50.90;;;;;;1580064;74;1926;-59
2022/10/02 11:04:44;;;;;;;;;;;22.80;51.00;;;;;;1577144;74;1119;-60
2022/10/02 11:07:06;;;;;;;;;;;22.60;51.30;;;;;;1521527;74;1050;-61
2022/10/02 11:09:18;;;;;;;;;;;22.60;51.20;;;;;;1571713;74;1707;-60
2022/10/02 11:11:26;;;;;;;;;;;22.60;51.10;;;;;;1571926;74;1132;-59
2022/10/02 11:13:31;;;;;;;;;;;22.70;51.20;;;;;;1562885;74;747;-58
2022/10/02 11:15:35;;;;;;;;;;;22.80;51.00;;;;;;1574726;74;1163;-59
2022/10/02 11:17:42;;;;;;;;;;;22.80;50.80;;;;;;1572018;74;2121;-60
2022/10/02 11:19:58;;;;;;;;;;;22.70;50.80;;;;;;1576309;74;2133;-59
2022/10/02 11:22:06;;;;;;;;;;;22.70;50.90;;;;;;1569829;74;1917;-59
2022/10/02 11:24:12;;;;;;;;;;;22.70;50.90;;;;;;1575887;74;1539;-60
2022/10/02 11:26:16;;;;;;;;;;;22.60;50.90;;;;;;1575782;74;1122;-59
2022/10/02 11:28:20;;;;;;;;;;;22.60;50.90;;;;;;1574490;74;800;-58
2022/10/02 11:30:28;;;;;;;;;;;22.60;51.00;;;;;;1572302;74;1990;-59
2022/10/02 11:32:43;;;;;;;;;;;22.60;51.00;;;;;;1572589;74;636;-61
2022/10/02 11:34:56;;;;;;;;;;;22.50;51.00;;;;;;1575486;74;1881;-59
2022/10/02 11:37:16;;;;;;;;;;;22.50;51.00;;;;;;1573777;74;1760;-61
2022/10/02 11:39:28;;;;;;;;;;;22.50;51.00;;;;;;1565896;74;697;-58
2022/10/02 11:41:32;;;;;;;;;;;22.50;51.10;;;;;;1577838;74;1850;-57
2022/10/02 11:43:45;;;;;;;;;;;22.50;51.10;;;;;;1569599;74;1931;-57
2022/10/02 11:45:54;;;;;;;;;;;22.50;51.10;;;;;;1565840;74;1099;-58
2022/10/02 11:48:12;;;;;;;;;;;22.50;51.20;;;;;;1569610;74;1448;-60
2022/10/02 11:50:24;;;;;;;;;;;22.40;51.00;;;;;;1567225;74;714;-60
2022/10/02 11:52:34;;;;;;;;;;;22.40;51.00;;;;;;1573899;74;1669;-59
2022/10/02 11:54:37;;;;;;;;;;;22.40;51.10;;;;;;1574420;74;1754;-62
2022/10/02 11:57:00;;;;;;;;;;;22.40;51.10;;;;;;1574791;74;1710;-58
2022/10/02 11:59:06;;;;;;;;;;;22.40;51.20;;;;;;1570173;74;1550;-59
2022/10/02 12:01:25;;;;;;;;;;;22.40;51.20;;;;;;1567288;74;1067;-60
2022/10/02 12:03:45;;;;;;;;;;;22.40;51.20;;;;;;1467008;79;1939;-59
2022/10/02 12:05:52;;;;;;;;;;;22.40;51.20;;;;;;1531069;74;1649;-61
2022/10/02 12:08:06;;;;;;;;;;;22.40;51.30;;;;;;1560840;74;1635;-59
2022/10/02 12:10:15;;;;;;;;;;;22.30;51.30;;;;;;1569381;74;704;-61
2022/10/02 12:12:32;;;;;;;;;;;22.40;51.30;;;;;;1564395;74;768;-61
2022/10/02 12:14:44;;;;;;;;;;;22.30;51.30;;;;;;1543333;75;1160;-61
2022/10/02 12:16:48;;;;;;;;;;;22.30;51.30;;;;;;1568672;71;221952;-66
2022/10/02 12:18:57;;;;;;;;;;;22.30;51.40;;;;;;1558937;75;729;-66
2022/10/02 12:28:20;;;;;;;;;;;22.30;51.30;;;;;;1558592;75;736;-66
2022/10/02 12:30:23;;;;;;;;;;;22.30;51.30;;;;;;1558779;75;1663;-67
2022/10/02 12:32:43;;;;;;;;;;;22.30;51.40;;;;;;1570010;75;1869;-67
2022/10/02 12:34:47;;;;;;;;;;;22.30;51.40;;;;;;1567297;75;1562;-67
2022/10/02 12:36:57;;;;;;;;;;;22.30;51.40;;;;;;1557901;75;1151;-67
2022/10/02 12:39:15;;;;;;;;;;;22.30;51.40;;;;;;1543154;75;1611;-67
2022/10/02 12:41:32;;;;;;;;;;;22.20;51.40;;;;;;1571869;75;809;-67
2022/10/02 12:43:42;;;;;;;;;;;22.20;51.30;;;;;;1567858;75;1935;-67
2022/10/02 12:46:02;;;;;;;;;;;22.20;51.30;;;;;;1578116;73;1129;-67
2022/10/02 12:48:10;;;;;;;;;;;22.20;51.30;;;;;;1561954;75;1520;-67
2022/10/02 12:50:20;;;;;;;;;;;22.20;51.40;;;;;;1560408;75;1005;-67